Time;durP1;ratioP1;P1;durP2;ratioP2;P2;SDS_P1;SDS_P2;PMS_P1;PMS_P2;Temp;Humidity;BMP_temperature;BMP_pressure;BME280_temperature;BME280_humidity;BME280_pressure;Samples;Min_cycle;Max_cycle;Signal;HPM_P1;HPM_P2
2022/05/30 00:02:03;;;;;;;;;;;;;;;12.92;59.90;99196.50;4486457;32;19998;-87
2022/05/30 00:04:28;;;;;;;;;;;;;;;12.88;59.89;99194.97;4471665;32;19993;-87
2022/05/30 00:06:53;;;;;;;;;;;;;;;12.84;59.89;99196.06;4471636;32;20012;-86
2022/05/30 00:09:19;;;;;;;;;;;;;;;13.02;59.90;99192.53;4471772;32;19988;-87
2022/05/30 00:11:44;;;;;;;;;;;;;;;12.98;59.90;99188.34;4471627;32;19995;-87
2022/05/30 00:14:09;;;;;;;;;;;;;;;13.10;59.90;99192.97;4471549;32;20054;-87
2022/05/30 00:16:34;;;;;;;;;;;;;;;13.10;59.90;99187.75;4471740;32;20041;-87
2022/05/30 00:19:00;;;;;;;;;;;;;;;13.23;59.91;99180.13;4471551;32;19973;-87
2022/05/30 00:21:25;;;;;;;;;;;;;;;13.35;59.92;99173.44;4471896;32;20008;-87
2022/05/30 00:23:53;;;;;;;;;;;;;;;13.38;59.92;99175.91;4485485;32;24822;-86
2022/05/30 00:26:18;;;;;;;;;;;;;;;13.48;59.92;99167.47;4472093;32;20063;-87
2022/05/30 00:28:44;;;;;;;;;;;;;;;13.45;59.93;99170.25;4458323;32;19999;-87
2022/05/30 00:31:12;;;;;;;;;;;;;;;13.34;59.92;99159.53;4471715;32;20003;-87
2022/05/30 00:33:38;;;;;;;;;;;;;;;13.34;59.92;99151.69;4485808;32;20003;-86
2022/05/30 00:36:03;;;;;;;;;;;;;;;13.50;59.93;99156.97;4486123;32;20004;-87
2022/05/30 00:38:29;;;;;;;;;;;;;;;13.60;59.93;99149.47;4458699;32;19988;-87
2022/05/30 00:40:54;;;;;;;;;;;;;;;13.72;59.95;99146.16;4471111;32;24528;-86
2022/05/30 00:43:36;;;;;;;;;;;;;;;13.67;59.94;99143.81;4471580;32;19992;-88
2022/05/30 00:46:03;;;;;;;;;;;;;;;13.60;59.93;99139.84;4473574;32;20000;-86
2022/05/30 00:48:32;;;;;;;;;;;;;;;13.33;59.91;99149.16;4471661;32;19969;-88
2022/05/30 00:50:58;;;;;;;;;;;;;;;13.54;59.93;99134.09;4471558;32;20520;-88
2022/05/30 00:53:23;;;;;;;;;;;;;;;13.60;59.93;99133.75;4471748;32;19984;-88
2022/05/30 00:55:49;;;;;;;;;;;;;;;13.56;59.93;99127.88;4458608;32;20000;-87
2022/05/30 00:58:14;;;;;;;;;;;;;;;13.63;59.93;99131.81;4458592;32;19988;-88
2022/05/30 01:00:39;;;;;;;;;;;;;;;13.66;59.94;99130.81;4471641;32;19987;-87
2022/05/30 01:08:32;;;;;;;;;;;;;;;13.64;59.93;99127.44;4473968;32;20048;-88
2022/05/30 01:10:57;;;;;;;;;;;;;;;13.75;59.94;99125.94;4471722;32;19980;-88
2022/05/30 01:13:24;;;;;;;;;;;;;;;13.61;59.93;99130.22;4471665;32;20027;-88
2022/05/30 01:15:50;;;;;;;;;;;;;;;13.28;59.92;99133.72;4472921;32;19971;-87
2022/05/30 01:18:21;;;;;;;;;;;;;;;13.50;59.93;99122.97;4474314;32;20608;-88
2022/05/30 01:20:48;;;;;;;;;;;;;;;13.33;59.92;99117.78;4472806;32;19988;-86
2022/05/30 01:23:14;;;;;;;;;;;;;;;13.05;59.91;99126.22;4472530;32;20044;-86
2022/05/30 01:25:57;;;;;;;;;;;;;;;13.11;59.90;99124.13;4472351;32;20036;-87
2022/05/30 01:28:29;;;;;;;;;;;;;;;13.25;59.91;99122.56;4487048;32;19968;-85
2022/05/30 01:30:54;;;;;;;;;;;;;;;13.23;59.91;99109.56;4487045;32;20365;-86
2022/05/30 01:33:19;;;;;;;;;;;;;;;13.39;59.92;99101.78;4472538;32;19998;-86
2022/05/30 01:35:44;;;;;;;;;;;;;;;13.41;59.92;99102.53;4472469;32;20366;-86
2022/05/30 01:38:10;;;;;;;;;;;;;;;13.43;59.93;99101.53;4472407;32;20331;-86
2022/05/30 01:40:35;;;;;;;;;;;;;;;13.59;59.94;99101.53;4471696;32;19987;-86
2022/05/30 01:43:00;;;;;;;;;;;;;;;13.40;59.92;99106.91;4486766;31;20002;-86
2022/05/30 01:45:25;;;;;;;;;;;;;;;13.39;59.92;99105.22;4472531;32;20024;-85
2022/05/30 01:47:51;;;;;;;;;;;;;;;13.46;59.93;99108.34;4472470;32;20313;-85
2022/05/30 01:50:16;;;;;;;;;;;;;;;13.31;59.92;99107.41;4486923;32;19983;-85
2022/05/30 01:52:42;;;;;;;;;;;;;;;13.24;59.91;99111.25;4472347;32;20000;-85
2022/05/30 01:55:07;;;;;;;;;;;;;;;13.30;59.92;99105.72;4472436;32;20037;-85
2022/05/30 01:57:32;;;;;;;;;;;;;;;13.47;59.92;99102.19;4486591;32;20364;-85
2022/05/30 01:59:58;;;;;;;;;;;;;;;13.46;59.93;99101.34;4486507;32;19976;-85
2022/05/30 02:02:23;;;;;;;;;;;;;;;13.43;59.93;99101.53;4472449;32;19988;-86
2022/05/30 02:04:48;;;;;;;;;;;;;;;13.61;59.93;99102.31;4486315;32;21122;-86
2022/05/30 02:07:13;;;;;;;;;;;;;;;13.50;59.93;99108.13;4486906;32;20005;-86
2022/05/30 02:09:39;;;;;;;;;;;;;;;13.64;59.93;99109.13;4472832;32;19986;-86
2022/05/30 02:12:04;;;;;;;;;;;;;;;13.48;59.92;99104.72;4486751;32;19976;-86
2022/05/30 02:14:29;;;;;;;;;;;;;;;13.65;59.94;99103.81;4486650;32;20000;-85
2022/05/30 02:17:01;;;;;;;;;;;;;;;13.54;59.93;99097.50;4472336;32;19985;-86
2022/05/30 02:19:30;;;;;;;;;;;;;;;13.60;59.93;99111.06;4486506;32;20012;-86
2022/05/30 02:21:56;;;;;;;;;;;;;;;13.76;59.94;99108.47;4472209;32;19984;-86
2022/05/30 02:24:21;;;;;;;;;;;;;;;13.71;59.94;99110.47;4472357;32;19999;-88
2022/05/30 02:26:47;;;;;;;;;;;;;;;13.52;59.93;99121.97;4472201;32;20031;-88
2022/05/30 02:29:13;;;;;;;;;;;;;;;13.62;59.93;99117.06;4459250;32;19985;-88
2022/05/30 02:31:38;;;;;;;;;;;;;;;13.75;59.94;99120.72;4472059;32;20013;-88
2022/05/30 02:36:47;;;;;;;;;;;;;;;13.60;59.93;99120.69;4474294;32;19996;-87
2022/05/30 02:39:14;;;;;;;;;;;;;;;13.84;59.95;99121.97;4471858;32;19976;-87
2022/05/30 02:41:40;;;;;;;;;;;;;;;13.51;59.93;99127.28;4471992;32;19980;-87
2022/05/30 02:44:05;;;;;;;;;;;;;;;13.70;59.94;99127.94;4458914;32;20007;-87
2022/05/30 02:46:30;;;;;;;;;;;;;;;13.76;59.94;99125.00;4458710;32;20025;-90
2022/05/30 02:48:56;;;;;;;;;;;;;;;13.48;59.92;99127.41;4471653;32;19988;-89
2022/05/30 02:51:21;;;;;;;;;;;;;;;13.54;59.93;99137.56;4475216;32;20256;-88
2022/05/30 02:53:46;;;;;;;;;;;;;;;13.47;59.92;99137.03;4476933;32;19977;-88
2022/05/30 02:56:11;;;;;;;;;;;;;;;13.68;59.94;99148.09;4491513;32;19980;-88
2022/05/30 02:58:37;;;;;;;;;;;;;;;14.02;59.95;99148.88;4464105;32;20328;-88
2022/05/30 03:01:02;;;;;;;;;;;;;;;13.64;59.93;99148.34;4467934;32;20008;-89
2022/05/30 03:03:27;;;;;;;;;;;;;;;13.53;59.93;99151.56;4487288;32;20019;-88
2022/05/30 03:05:54;;;;;;;;;;;;;;;13.88;59.95;99143.56;4491848;32;20036;-88
2022/05/30 03:08:20;;;;;;;;;;;;;;;13.87;59.94;99157.56;4491645;32;19969;-90
2022/05/30 03:10:45;;;;;;;;;;;;;;;13.82;59.95;99150.81;4476916;32;20324;-89
2022/05/30 03:13:10;;;;;;;;;;;;;;;13.76;59.94;99148.56;4476676;32;20313;-89
2022/05/30 03:15:36;;;;;;;;;;;;;;;13.61;59.93;99154.59;4463832;32;20283;-90
2022/05/30 03:18:01;;;;;;;;;;;;;;;14.02;59.96;99152.34;4476858;32;20017;-89
2022/05/30 03:20:27;;;;;;;;;;;;;;;14.03;59.96;99147.97;4476941;32;19972;-89
2022/05/30 03:22:52;;;;;;;;;;;;;;;13.99;59.95;99157.75;4476699;32;20019;-89
2022/05/30 03:25:17;;;;;;;;;;;;;;;14.05;59.96;99160.03;4476829;32;19985;-89
2022/05/30 03:27:43;;;;;;;;;;;;;;;13.73;59.94;99164.41;4476897;32;20256;-89
2022/05/30 03:30:08;;;;;;;;;;;;;;;13.68;59.93;99169.03;4479769;32;20004;-90
2022/05/30 03:32:34;;;;;;;;;;;;;;;13.67;59.93;99176.97;4477710;32;20266;-87
2022/05/30 03:34:59;;;;;;;;;;;;;;;13.80;59.95;99173.59;4476180;32;19987;-89
2022/05/30 03:37:25;;;;;;;;;;;;;;;13.89;59.95;99176.66;4490942;32;19960;-89
2022/05/30 03:39:50;;;;;;;;;;;;;;;13.97;59.96;99162.22;4476351;32;19988;-89
2022/05/30 03:42:15;;;;;;;;;;;;;;;13.96;59.96;99160.53;4476064;32;20341;-88
2022/05/30 03:44:41;;;;;;;;;;;;;;;14.15;59.96;99157.72;4463033;32;20250;-89
2022/05/30 03:47:06;;;;;;;;;;;;;;;14.01;59.95;99160.28;4490747;32;20012;-88
2022/05/30 03:49:31;;;;;;;;;;;;;;;14.22;59.97;99158.25;4463087;32;20048;-88
2022/05/30 03:51:58;;;;;;;;;;;;;;;14.34;59.98;99155.75;4475759;32;20016;-86
2022/05/30 03:54:23;;;;;;;;;;;;;;;14.19;59.96;99154.00;4490470;32;19969;-87
2022/05/30 03:56:48;;;;;;;;;;;;;;;14.24;59.96;99159.00;4475924;32;20386;-88
2022/05/30 03:59:13;;;;;;;;;;;;;;;13.98;59.95;99152.59;4475893;32;19980;-88
2022/05/30 04:01:39;;;;;;;;;;;;;;;14.19;59.96;99159.25;4475540;32;19988;-89
2022/05/30 04:04:04;;;;;;;;;;;;;;;14.17;59.95;99161.09;4487218;32;19992;-88
2022/05/30 04:06:29;;;;;;;;;;;;;;;14.00;59.95;99166.44;4472929;32;20018;-88
2022/05/30 04:08:54;;;;;;;;;;;;;;;14.01;59.95;99170.75;4472964;32;19999;-88
2022/05/30 04:11:19;;;;;;;;;;;;;;;14.02;59.95;99164.59;4472573;32;19992;-88
2022/05/30 04:13:45;;;;;;;;;;;;;;;14.11;59.96;99151.81;4473067;32;19965;-88
2022/05/30 04:16:11;;;;;;;;;;;;;;;14.30;59.96;99161.28;4487360;32;19969;-89
2022/05/30 04:18:36;;;;;;;;;;;;;;;14.37;59.97;99160.81;4487389;32;20326;-86
2022/05/30 04:21:02;;;;;;;;;;;;;;;14.49;59.98;99164.56;4472799;32;20010;-86
2022/05/30 04:23:28;;;;;;;;;;;;;;;14.52;59.98;99166.16;4472984;32;20006;-88
2022/05/30 04:25:53;;;;;;;;;;;;;;;14.72;59.99;99173.72;4486026;32;20361;-88
2022/05/30 04:28:19;;;;;;;;;;;;;;;14.82;60.00;99167.00;4488021;31;20333;-86
2022/05/30 04:30:44;;;;;;;;;;;;;;;15.01;60.00;99162.34;4494585;31;20259;-86
2022/05/30 04:33:09;;;;;;;;;;;;;;;14.81;60.00;99170.56;4486790;31;19999;-86
2022/05/30 04:35:35;;;;;;;;;;;;;;;14.78;60.00;99173.34;4487079;32;19995;-86
2022/05/30 04:38:00;;;;;;;;;;;;;;;14.81;60.00;99174.94;4459553;32;19988;-85
2022/05/30 04:40:25;;;;;;;;;;;;;;;14.97;60.00;99173.97;4459507;32;19992;-87
2022/05/30 04:42:50;;;;;;;;;;;;;;;15.26;60.02;99181.88;4472532;32;20325;-87
2022/05/30 04:45:16;;;;;;;;;;;;;;;15.08;60.00;99181.19;4474898;31;19985;-87
2022/05/30 04:47:41;;;;;;;;;;;;;;;15.30;60.02;99178.13;4489126;32;19996;-87
2022/05/30 04:50:07;;;;;;;;;;;;;;;15.22;60.02;99185.63;4487182;32;19988;-88
2022/05/30 04:52:33;;;;;;;;;;;;;;;15.40;60.03;99176.66;4474017;32;20040;-88
2022/05/30 04:54:58;;;;;;;;;;;;;;;15.21;60.01;99181.31;4474787;32;19976;-87
2022/05/30 04:57:23;;;;;;;;;;;;;;;15.32;60.01;99182.34;4473208;32;19992;-87
2022/05/30 04:59:48;;;;;;;;;;;;;;;15.36;60.02;99183.00;4486896;32;19987;-87
2022/05/30 05:02:15;;;;;;;;;;;;;;;15.34;60.03;99177.00;4472411;32;20341;-87
2022/05/30 05:04:41;;;;;;;;;;;;;;;15.42;60.03;99181.78;4472678;32;20314;-87
2022/05/30 05:07:06;;;;;;;;;;;;;;;15.39;60.02;99193.31;4486870;32;20037;-87
2022/05/30 05:09:36;;;;;;;;;;;;;;;15.62;60.04;99202.44;4472470;32;20003;-88
2022/05/30 05:12:01;;;;;;;;;;;;;;;15.57;60.04;99204.44;4472256;32;19990;-88
2022/05/30 05:14:26;;;;;;;;;;;;;;;15.92;60.05;99202.31;4471204;32;19972;-83
2022/05/30 05:16:51;;;;;;;;;;;;;;;16.07;60.06;99192.63;4499496;31;19999;-83
2022/05/30 05:19:17;;;;;;;;;;;;;;;16.03;60.06;99202.47;4502540;31;20271;-85
2022/05/30 05:21:43;;;;;;;;;;;;;;;16.17;60.07;99194.56;4487431;31;19996;-85
2022/05/30 05:24:08;;;;;;;;;;;;;;;16.50;60.09;99202.06;4460901;32;20008;-84
2022/05/30 05:26:33;;;;;;;;;;;;;;;16.50;60.09;99209.09;4459273;32;20000;-85
2022/05/30 05:28:59;;;;;;;;;;;;;;;16.59;60.09;99216.41;4472178;32;19977;-84
2022/05/30 05:31:27;;;;;;;;;;;;;;;16.32;60.08;99215.53;4459017;32;19980;-84
2022/05/30 05:33:53;;;;;;;;;;;;;;;16.42;60.08;99214.84;4486442;32;20034;-86
2022/05/30 05:36:24;;;;;;;;;;;;;;;16.45;60.09;99219.06;4486282;32;20462;-85
2022/05/30 05:38:49;;;;;;;;;;;;;;;16.75;60.10;99217.09;4486555;31;19984;-88
2022/05/30 05:41:14;;;;;;;;;;;;;;;16.50;60.09;99222.22;4485458;32;19989;-88
2022/05/30 05:43:40;;;;;;;;;;;;;;;16.62;60.10;99236.38;4486569;32;20245;-88
2022/05/30 05:46:05;;;;;;;;;;;;;;;16.68;60.10;99228.12;4485475;32;20029;-87
2022/05/30 05:48:30;;;;;;;;;;;;;;;16.75;60.10;99227.59;4484624;32;19988;-88
2022/05/30 05:50:55;;;;;;;;;;;;;;;16.91;60.11;99231.87;4472053;32;19998;-87
2022/05/30 05:53:21;;;;;;;;;;;;;;;17.05;60.12;99232.66;4485225;32;19983;-87
2022/05/30 05:55:46;;;;;;;;;;;;;;;17.11;60.12;99236.66;4485076;32;20353;-87
2022/05/30 05:58:11;;;;;;;;;;;;;;;17.08;60.12;99242.12;4484973;32;20302;-87
2022/05/30 06:00:37;;;;;;;;;;;;;;;17.25;60.13;99235.69;4472283;32;20009;-88
2022/05/30 06:03:02;;;;;;;;;;;;;;;17.40;60.14;99242.56;4485351;32;20256;-87
2022/05/30 06:05:30;;;;;;;;;;;;;;;17.36;60.13;99246.34;4485616;32;20365;-87
2022/05/30 06:07:59;;;;;;;;;;;;;;;17.61;60.14;99245.53;4485554;32;20001;-88
2022/05/30 06:10:25;;;;;;;;;;;;;;;17.53;60.14;99240.81;4485602;32;20000;-87
2022/05/30 06:12:50;;;;;;;;;;;;;;;17.52;60.14;99238.28;4485257;32;20364;-87
2022/05/30 06:15:16;;;;;;;;;;;;;;;17.46;60.13;99244.78;4486494;32;19999;-87
2022/05/30 06:17:41;;;;;;;;;;;;;;;17.47;60.14;99242.03;4486944;31;20003;-87
2022/05/30 06:20:07;;;;;;;;;;;;;;;17.60;60.15;99246.47;4486177;32;19963;-88
2022/05/30 06:22:32;;;;;;;;;;;;;;;17.75;60.15;99241.03;4472107;32;20017;-88
2022/05/30 06:24:57;;;;;;;;;;;;;;;17.77;60.16;99248.81;4484402;32;20038;-88
2022/05/30 06:27:22;;;;;;;;;;;;;;;17.84;60.15;99252.69;4485297;32;20361;-86
2022/05/30 06:29:49;;;;;;;;;;;;;;;17.68;60.15;99254.69;4485153;32;20036;-87
2022/05/30 06:32:14;;;;;;;;;;;;;;;17.86;60.16;99261.34;4486623;31;20048;-87
2022/05/30 06:34:39;;;;;;;;;;;;;;;17.96;60.17;99251.81;4485295;32;19993;-87
2022/05/30 06:37:04;;;;;;;;;;;;;;;17.99;60.16;99259.53;4484818;32;20000;-87
2022/05/30 06:39:30;;;;;;;;;;;;;;;18.15;60.17;99263.72;4484959;32;19976;-87
2022/05/30 06:41:55;;;;;;;;;;;;;;;18.33;60.19;99262.41;4485925;32;19977;-87
2022/05/30 06:44:20;;;;;;;;;;;;;;;18.36;60.19;99263.03;4486208;32;19987;-87
2022/05/30 06:46:45;;;;;;;;;;;;;;;18.28;60.18;99269.81;4472086;32;19996;-87
2022/05/30 06:49:11;;;;;;;;;;;;;;;18.10;60.18;99262.25;4471647;32;20297;-86
2022/05/30 06:51:36;;;;;;;;;;;;;;;18.42;60.19;99259.09;4484714;32;23323;-88
2022/05/30 06:54:01;;;;;;;;;;;;;;;18.67;60.20;99268.75;4485185;32;20036;-87
2022/05/30 06:56:30;;;;;;;;;;;;;;;18.75;60.21;99273.47;4484777;32;19992;-87
2022/05/30 06:58:56;;;;;;;;;;;;;;;18.99;60.22;99264.59;4484898;32;20415;-87
2022/05/30 07:01:26;;;;;;;;;;;;;;;19.24;60.24;99260.97;4485943;32;20384;-87
2022/05/30 07:03:51;;;;;;;;;;;;;;;19.32;60.24;99263.00;4486081;31;20230;-87
2022/05/30 07:06:26;;;;;;;;;;;;;;;19.31;60.24;99264.81;4485968;31;20011;-87
2022/05/30 07:08:52;;;;;;;;;;;;;;;19.49;60.25;99259.94;4484771;32;19992;-86
2022/05/30 07:11:17;;;;;;;;;;;;;;;19.83;60.27;99254.72;4471357;32;20389;-86
2022/05/30 07:13:43;;;;;;;;;;;;;;;19.98;60.28;99261.44;4484428;32;20343;-86
2022/05/30 07:16:11;;;;;;;;;;;;;;;20.04;60.28;99252.19;4485727;31;19981;-87
2022/05/30 07:18:36;;;;;;;;;;;;;;;19.96;60.28;99251.97;4484407;32;20498;-86
2022/05/30 07:21:03;;;;;;;;;;;;;;;20.03;60.28;99254.00;4471345;32;20000;-86
2022/05/30 07:23:29;;;;;;;;;;;;;;;19.90;60.27;99256.78;4484432;32;20020;-86
2022/05/30 07:25:58;;;;;;;;;;;;;;;19.75;60.26;99250.03;4484428;32;19984;-86
2022/05/30 07:28:25;;;;;;;;;;;;;;;19.92;60.28;99244.28;4485589;31;19977;-87
2022/05/30 07:30:50;;;;;;;;;;;;;;;20.05;60.28;99245.94;4471531;32;20019;-87
2022/05/30 07:33:15;;;;;;;;;;;;;;;20.11;60.28;99254.25;4484487;32;20277;-87
2022/05/30 07:35:41;;;;;;;;;;;;;;;20.23;60.30;99255.06;4484400;32;19985;-86
2022/05/30 07:38:07;;;;;;;;;;;;;;;20.37;60.30;99246.87;4485559;32;20246;-87
2022/05/30 07:40:32;;;;;;;;;;;;;;;20.63;60.32;99252.75;4486202;32;19976;-87
2022/05/30 07:42:57;;;;;;;;;;;;;;;20.70;60.31;99253.06;4487568;32;20014;-86
2022/05/30 07:45:22;;;;;;;;;;;;;;;20.77;60.33;99248.94;4486441;32;20092;-86
2022/05/30 07:47:48;;;;;;;;;;;;;;;20.85;60.33;99246.53;4486515;32;19976;-87
2022/05/30 07:50:13;;;;;;;;;;;;;;;20.84;60.32;99255.44;4473110;32;20028;-86
2022/05/30 07:52:38;;;;;;;;;;;;;;;20.89;60.33;99249.75;4473058;32;20024;-87
2022/05/30 07:55:04;;;;;;;;;;;;;;;20.79;60.32;99247.84;4486319;32;19980;-86
2022/05/30 08:00:14;;;;;;;;;;;;;;;21.30;60.35;99252.50;4487488;32;20013;-86
2022/05/30 08:02:39;;;;;;;;;;;;;;;21.43;60.36;99253.13;4486280;32;20000;-86
2022/05/30 08:05:08;;;;;;;;;;;;;;;21.60;60.36;99254.34;4486199;32;20021;-86
2022/05/30 08:07:33;;;;;;;;;;;;;;;21.46;60.36;99257.31;4486344;32;19984;-86
2022/05/30 08:09:59;;;;;;;;;;;;;;;21.52;60.36;99261.25;4486953;32;20511;-86
2022/05/30 08:12:24;;;;;;;;;;;;;;;21.37;60.35;99266.88;4485961;32;19992;-86
2022/05/30 08:14:49;;;;;;;;;;;;;;;21.44;60.36;99257.44;4487597;32;19977;-86
2022/05/30 08:17:14;;;;;;;;;;;;;;;21.35;60.35;99262.69;4487139;32;19968;-87
2022/05/30 08:19:40;;;;;;;;;;;;;;;21.31;60.35;99262.09;4473387;32;20020;-87
2022/05/30 08:22:07;;;;;;;;;;;;;;;21.48;60.36;99278.38;4487303;31;20000;-86
2022/05/30 08:24:39;;;;;;;;;;;;;;;21.76;60.37;99269.75;4487377;31;20287;-86
2022/05/30 08:27:04;;;;;;;;;;;;;;;22.11;60.39;99272.03;4486026;32;19972;-86
2022/05/30 08:29:30;;;;;;;;;;;;;;;22.13;60.40;99272.75;4486005;32;20381;-86
2022/05/30 08:31:55;;;;;;;;;;;;;;;22.30;60.40;99282.72;4486114;32;20011;-86
2022/05/30 08:34:20;;;;;;;;;;;;;;;22.44;60.41;99280.66;4485848;32;20350;-86
2022/05/30 08:36:45;;;;;;;;;;;;;;;22.59;60.42;99266.03;4487151;31;20280;-86
2022/05/30 08:41:55;;;;;;;;;;;;;;;23.24;60.45;99246.81;4487183;32;20431;-86
2022/05/30 08:44:20;;;;;;;;;;;;;;;23.50;60.47;99236.41;4487096;32;19984;-86
2022/05/30 08:46:52;;;;;;;;;;;;;;;23.68;60.48;99246.34;4485587;32;21897;-86
2022/05/30 08:49:22;;;;;;;;;;;;;;;23.74;60.48;99246.59;4485622;32;20025;-87
2022/05/30 08:51:57;;;;;;;;;;;;;;;24.02;60.49;99255.44;4472798;32;20325;-86
2022/05/30 08:54:25;;;;;;;;;;;;;;;24.02;60.49;99250.12;4487169;32;20036;-86
2022/05/30 08:56:50;;;;;;;;;;;;;;;24.13;60.50;99249.94;4487076;31;19977;-86
2022/05/30 08:59:18;;;;;;;;;;;;;;;24.11;60.49;99256.34;4486058;32;19992;-86
2022/05/30 09:01:45;;;;;;;;;;;;;;;23.69;60.48;99270.09;4485765;32;19996;-87
2022/05/30 09:04:30;;;;;;;;;;;;;;;23.07;60.44;99273.22;4485878;32;20000;-86
2022/05/30 09:06:57;;;;;;;;;;;;;;;23.47;60.46;99283.69;4485941;32;20368;-85
2022/05/30 09:09:42;;;;;;;;;;;;;;;23.44;60.47;99284.81;4485816;32;19972;-86
2022/05/30 09:12:10;;;;;;;;;;;;;;;23.72;60.48;99284.94;4486929;32;20045;-86
2022/05/30 09:14:46;;;;;;;;;;;;;;;23.60;60.48;99286.06;4487020;32;20261;-86
2022/05/30 09:17:23;;;;;;;;;;;;;;;23.56;60.47;99290.81;4485611;32;19982;-86
2022/05/30 09:19:48;;;;;;;;;;;;;;;23.54;60.47;99290.09;4485809;32;19993;-87
2022/05/30 09:22:13;;;;;;;;;;;;;;;23.53;60.47;99288.41;4485493;32;19988;-86
2022/05/30 09:24:39;;;;;;;;;;;;;;;23.15;60.45;99283.97;4485358;32;19992;-86
2022/05/30 09:27:04;;;;;;;;;;;;;;;23.45;60.47;99289.12;4472448;32;19976;-86
2022/05/30 09:29:30;;;;;;;;;;;;;;;23.54;60.47;99290.94;4485729;32;19976;-86
2022/05/30 09:32:01;;;;;;;;;;;;;;;23.37;60.46;99290.81;4486879;31;19977;-86
2022/05/30 09:34:32;;;;;;;;;;;;;;;23.51;60.48;99293.03;4486949;32;19988;-86
2022/05/30 09:36:58;;;;;;;;;;;;;;;23.26;60.45;99283.84;4486948;32;20613;-86
2022/05/30 09:39:24;;;;;;;;;;;;;;;23.07;60.45;99281.19;4485610;32;20286;-88
2022/05/30 09:41:55;;;;;;;;;;;;;;;23.21;60.46;99286.09;4486798;31;19998;-85
2022/05/30 09:44:24;;;;;;;;;;;;;;;23.12;60.46;99287.75;4485424;32;19996;-86
2022/05/30 09:46:52;;;;;;;;;;;;;;;23.08;60.44;99293.47;4485754;32;20031;-86
2022/05/30 09:49:18;;;;;;;;;;;;;;;23.27;60.46;99296.97;4486843;31;20374;-86
2022/05/30 09:51:44;;;;;;;;;;;;;;;23.18;60.46;99307.59;4486853;32;19988;-86
2022/05/30 09:54:11;;;;;;;;;;;;;;;23.17;60.45;99317.38;4472403;32;20026;-86
2022/05/30 09:56:37;;;;;;;;;;;;;;;23.16;60.45;99310.38;4472365;32;19972;-86
2022/05/30 09:59:02;;;;;;;;;;;;;;;23.20;60.46;99309.16;4485598;32;19976;-86
2022/05/30 10:01:28;;;;;;;;;;;;;;;23.33;60.46;99310.66;4484413;32;20312;-86
2022/05/30 10:03:56;;;;;;;;;;;;;;;23.44;60.48;99306.06;4486070;32;20003;-85
2022/05/30 10:06:25;;;;;;;;;;;;;;;23.19;60.46;99310.13;4485632;32;19968;-86
2022/05/30 10:08:52;;;;;;;;;;;;;;;23.25;60.46;99322.00;4485176;32;19998;-86
2022/05/30 10:11:32;;;;;;;;;;;;;;;23.26;60.46;99321.88;4472343;32;19993;-86
2022/05/30 10:13:57;;;;;;;;;;;;;;;23.13;60.46;99315.13;4485439;32;20006;-86
2022/05/30 10:16:30;;;;;;;;;;;;;;;22.74;60.44;99315.09;4485354;32;20241;-85
2022/05/30 10:18:56;;;;;;;;;;;;;;;23.03;60.44;99306.34;4486521;31;20031;-87
2022/05/30 10:21:22;;;;;;;;;;;;;;;23.36;60.47;99307.72;4485314;32;20277;-86
2022/05/30 10:29:40;;;;;;;;;;;;;;;22.94;60.45;99327.41;4486407;32;20077;-86
2022/05/30 10:32:09;;;;;;;;;;;;;;;23.20;60.46;99316.28;4486293;31;19981;-86
2022/05/30 10:34:35;;;;;;;;;;;;;;;23.54;60.47;99324.63;4485221;32;20316;-87
2022/05/30 10:37:03;;;;;;;;;;;;;;;23.36;60.47;99321.84;4486293;31;19968;-85
2022/05/30 10:39:31;;;;;;;;;;;;;;;23.44;60.47;99332.63;4486389;32;20320;-86
2022/05/30 10:41:57;;;;;;;;;;;;;;;23.20;60.46;99335.72;4486215;32;19977;-86
2022/05/30 10:44:23;;;;;;;;;;;;;;;22.82;60.44;99325.88;4486114;32;20003;-86
2022/05/30 10:46:51;;;;;;;;;;;;;;;22.90;60.44;99335.78;4485053;32;19998;-85
2022/05/30 10:49:18;;;;;;;;;;;;;;;23.03;60.44;99340.84;4486229;32;19983;-86
2022/05/30 10:51:47;;;;;;;;;;;;;;;22.92;60.44;99328.53;4485078;32;19972;-86
2022/05/30 10:54:17;;;;;;;;;;;;;;;22.69;60.43;99322.59;4486107;32;19985;-86
2022/05/30 10:56:49;;;;;;;;;;;;;;;22.76;60.43;99325.56;4484625;32;20366;-86
2022/05/30 10:59:14;;;;;;;;;;;;;;;23.11;60.46;99322.41;4484869;32;20047;-86
2022/05/30 11:01:44;;;;;;;;;;;;;;;23.18;60.46;99324.34;4485862;32;19984;-85
2022/05/30 11:04:12;;;;;;;;;;;;;;;23.02;60.44;99334.72;4484831;32;20002;-86
2022/05/30 11:06:38;;;;;;;;;;;;;;;23.07;60.45;99337.78;4484883;32;19977;-87
2022/05/30 11:09:13;;;;;;;;;;;;;;;23.45;60.47;99349.41;4484753;32;20037;-86
2022/05/30 11:11:48;;;;;;;;;;;;;;;23.33;60.46;99340.72;4486539;31;20003;-87
2022/05/30 11:14:20;;;;;;;;;;;;;;;23.35;60.47;99354.69;4487942;31;20447;-86
2022/05/30 11:16:47;;;;;;;;;;;;;;;23.17;60.46;99349.22;4488605;32;19987;-86
2022/05/30 11:19:13;;;;;;;;;;;;;;;23.18;60.46;99356.22;4489157;32;19965;-87
2022/05/30 11:21:41;;;;;;;;;;;;;;;22.91;60.45;99369.31;4487977;32;20304;-86
2022/05/30 11:24:06;;;;;;;;;;;;;;;22.84;60.44;99369.03;4486629;32;19996;-86
2022/05/30 11:26:50;;;;;;;;;;;;;;;22.80;60.45;99370.25;4487841;31;19991;-86
2022/05/30 11:29:18;;;;;;;;;;;;;;;22.43;60.42;99382.41;4488053;31;20375;-86
2022/05/30 11:31:46;;;;;;;;;;;;;;;22.44;60.42;99363.69;4486771;32;20364;-86
2022/05/30 11:34:11;;;;;;;;;;;;;;;22.27;60.41;99365.19;4486454;32;19997;-86
2022/05/30 11:36:37;;;;;;;;;;;;;;;22.36;60.42;99358.22;4487663;32;19991;-86
2022/05/30 11:39:15;;;;;;;;;;;;;;;22.40;60.42;99353.50;4487719;32;20021;-86
2022/05/30 11:41:50;;;;;;;;;;;;;;;22.65;60.44;99355.69;4486110;32;19996;-86
2022/05/30 11:44:34;;;;;;;;;;;;;;;22.71;60.44;99347.16;4486154;32;20040;-86
2022/05/30 11:47:08;;;;;;;;;;;;;;;22.73;60.44;99349.72;4487507;31;19981;-86
2022/05/30 11:49:43;;;;;;;;;;;;;;;22.85;60.44;99351.28;4487328;32;19972;-86
2022/05/30 11:52:15;;;;;;;;;;;;;;;22.74;60.44;99346.09;4486354;32;19999;-87
2022/05/30 11:54:41;;;;;;;;;;;;;;;23.14;60.46;99344.19;4487403;32;20333;-86
2022/05/30 11:57:25;;;;;;;;;;;;;;;22.76;60.44;99349.44;4485968;32;19990;-86
2022/05/30 12:00:05;;;;;;;;;;;;;;;22.93;60.46;99346.97;4487930;31;20055;-86
2022/05/30 12:02:37;;;;;;;;;;;;;;;22.68;60.43;99358.06;4490111;31;20037;-86
2022/05/30 12:05:05;;;;;;;;;;;;;;;22.82;60.44;99355.06;4490970;32;19992;-86
2022/05/30 12:07:50;;;;;;;;;;;;;;;22.99;60.45;99347.41;4486236;32;20396;-86
2022/05/30 12:10:17;;;;;;;;;;;;;;;23.21;60.46;99347.16;4488379;32;19983;-86
2022/05/30 12:12:48;;;;;;;;;;;;;;;23.65;60.47;99337.78;4486152;32;20038;-86
2022/05/30 12:15:22;;;;;;;;;;;;;;;23.86;60.49;99356.22;4486155;32;20045;-86
2022/05/30 12:24:18;;;;;;;;;;;;;;;23.76;60.49;99352.75;4486947;32;19991;-86
2022/05/30 12:26:46;;;;;;;;;;;;;;;23.63;60.48;99354.84;4473830;31;19992;-86
2022/05/30 12:29:23;;;;;;;;;;;;;;;23.61;60.48;99341.72;4487111;32;19980;-86
2022/05/30 12:31:48;;;;;;;;;;;;;;;23.78;60.49;99338.34;4485819;32;20024;-86
2022/05/30 12:34:13;;;;;;;;;;;;;;;24.11;60.50;99336.13;4472591;32;19992;-86
2022/05/30 12:36:39;;;;;;;;;;;;;;;24.09;60.51;99333.62;4486384;32;23008;-86
2022/05/30 12:39:14;;;;;;;;;;;;;;;24.10;60.50;99331.81;4485783;32;19986;-86
2022/05/30 12:41:56;;;;;;;;;;;;;;;24.27;60.51;99330.22;4472543;32;20044;-86
2022/05/30 12:44:40;;;;;;;;;;;;;;;24.32;60.52;99325.31;4486977;31;19981;-86
2022/05/30 12:47:09;;;;;;;;;;;;;;;24.15;60.51;99333.06;4485692;32;20000;-86
2022/05/30 12:49:34;;;;;;;;;;;;;;;24.11;60.50;99336.13;4485554;32;19977;-86
2022/05/30 12:52:14;;;;;;;;;;;;;;;24.04;60.51;99321.75;4485695;32;19973;-86
2022/05/30 12:54:59;;;;;;;;;;;;;;;23.91;60.50;99329.22;4486936;31;20033;-86
2022/05/30 12:57:43;;;;;;;;;;;;;;;23.97;60.51;99321.50;4486929;31;19981;-86
2022/05/30 13:00:34;;;;;;;;;;;;;;;24.12;60.51;99317.38;4485745;32;19986;-86
2022/05/30 13:03:09;;;;;;;;;;;;;;;24.07;60.51;99321.47;4455843;32;20033;-86
2022/05/30 13:05:40;;;;;;;;;;;;;;;24.09;60.51;99317.66;4485806;32;19999;-86
2022/05/30 13:08:24;;;;;;;;;;;;;;;24.38;60.53;99319.44;4486933;31;20409;-86
2022/05/30 13:10:50;;;;;;;;;;;;;;;24.21;60.52;99312.19;4485678;32;20344;-86
2022/05/30 13:13:16;;;;;;;;;;;;;;;23.93;60.50;99319.28;4485578;32;20015;-86
2022/05/30 13:15:44;;;;;;;;;;;;;;;23.89;60.51;99316.03;4472313;32;19988;-86